sensor_id;sensor_type;location;lat;lon;timestamp;P1;durP1;ratioP1;P2;durP2;ratioP2
8232;SDS011;4157;48.074;9.952;2024-03-02T00:00:14;12.90;;;10.82;;
8232;SDS011;4157;48.074;9.952;2024-03-02T00:02:43;13.57;;;11.02;;
8232;SDS011;4157;48.074;9.952;2024-03-02T00:05:12;13.25;;;10.60;;
8232;SDS011;4157;48.074;9.952;2024-03-02T00:07:40;11.30;;;9.68;;
8232;SDS011;4157;48.074;9.952;2024-03-02T00:10:09;10.93;;;9.45;;
8232;SDS011;4157;48.074;9.952;2024-03-02T00:12:37;13.10;;;10.82;;
8232;SDS011;4157;48.074;9.952;2024-03-02T00:15:05;12.15;;;9.90;;
8232;SDS011;4157;48.074;9.952;2024-03-02T00:17:35;11.77;;;10.25;;
8232;SDS011;4157;48.074;9.952;2024-03-02T00:20:03;13.55;;;10.30;;
8232;SDS011;4157;48.074;9.952;2024-03-02T00:22:31;11.00;;;8.82;;
8232;SDS011;4157;48.074;9.952;2024-03-02T00:24:58;12.15;;;10.25;;
8232;SDS011;4157;48.074;9.952;2024-03-02T00:27:26;17.80;;;15.85;;
8232;SDS011;4157;48.074;9.952;2024-03-02T00:29:54;18.90;;;16.27;;
8232;SDS011;4157;48.074;9.952;2024-03-02T00:32:22;15.38;;;13.15;;
8232;SDS011;4157;48.074;9.952;2024-03-02T00:34:52;15.18;;;13.50;;
8232;SDS011;4157;48.074;9.952;2024-03-02T00:37:20;15.60;;;13.88;;
8232;SDS011;4157;48.074;9.952;2024-03-02T00:39:48;12.60;;;10.73;;
8232;SDS011;4157;48.074;9.952;2024-03-02T00:42:16;13.23;;;11.48;;
8232;SDS011;4157;48.074;9.952;2024-03-02T00:44:44;12.10;;;10.80;;
8232;SDS011;4157;48.074;9.952;2024-03-02T00:47:13;13.27;;;11.77;;
8232;SDS011;4157;48.074;9.952;2024-03-02T00:49:41;12.40;;;10.65;;
8232;SDS011;4157;48.074;9.952;2024-03-02T00:52:10;13.55;;;10.95;;
8232;SDS011;4157;48.074;9.952;2024-03-02T00:54:38;14.05;;;11.95;;
8232;SDS011;4157;48.074;9.952;2024-03-02T00:57:05;13.70;;;11.18;;
8232;SDS011;4157;48.074;9.952;2024-03-02T00:59:33;13.13;;;10.48;;
8232;SDS011;4157;48.074;9.952;2024-03-02T01:02:00;11.80;;;9.10;;
8232;SDS011;4157;48.074;9.952;2024-03-02T01:04:28;11.23;;;9.90;;
8232;SDS011;4157;48.074;9.952;2024-03-02T01:06:56;11.48;;;10.27;;
8232;SDS011;4157;48.074;9.952;2024-03-02T01:09:25;12.10;;;10.43;;
8232;SDS011;4157;48.074;9.952;2024-03-02T01:11:53;12.18;;;10.00;;
8232;SDS011;4157;48.074;9.952;2024-03-02T01:14:21;11.15;;;9.95;;
8232;SDS011;4157;48.074;9.952;2024-03-02T01:16:48;12.05;;;10.05;;
8232;SDS011;4157;48.074;9.952;2024-03-02T01:19:16;12.63;;;10.80;;
8232;SDS011;4157;48.074;9.952;2024-03-02T01:21:44;12.63;;;9.60;;
8232;SDS011;4157;48.074;9.952;2024-03-02T01:24:11;11.38;;;9.68;;
8232;SDS011;4157;48.074;9.952;2024-03-02T01:26:40;13.38;;;11.02;;
8232;SDS011;4157;48.074;9.952;2024-03-02T01:29:08;12.30;;;10.38;;
8232;SDS011;4157;48.074;9.952;2024-03-02T01:31:36;12.52;;;10.00;;
8232;SDS011;4157;48.074;9.952;2024-03-02T01:34:05;12.45;;;11.15;;
8232;SDS011;4157;48.074;9.952;2024-03-02T01:36:33;13.18;;;11.38;;
8232;SDS011;4157;48.074;9.952;2024-03-02T01:39:00;14.52;;;11.85;;
8232;SDS011;4157;48.074;9.952;2024-03-02T01:41:28;14.40;;;11.85;;
8232;SDS011;4157;48.074;9.952;2024-03-02T01:43:57;12.15;;;10.55;;
8232;SDS011;4157;48.074;9.952;2024-03-02T01:46:25;12.43;;;11.05;;
8232;SDS011;4157;48.074;9.952;2024-03-02T01:48:53;14.35;;;11.95;;
8232;SDS011;4157;48.074;9.952;2024-03-02T01:51:20;13.25;;;11.13;;
8232;SDS011;4157;48.074;9.952;2024-03-02T01:53:48;13.20;;;11.35;;
8232;SDS011;4157;48.074;9.952;2024-03-02T01:56:16;13.13;;;11.40;;
8232;SDS011;4157;48.074;9.952;2024-03-02T01:58:43;13.43;;;10.93;;
8232;SDS011;4157;48.074;9.952;2024-03-02T02:01:12;12.35;;;11.05;;
8232;SDS011;4157;48.074;9.952;2024-03-02T02:03:40;13.02;;;10.60;;
8232;SDS011;4157;48.074;9.952;2024-03-02T02:06:08;10.32;;;9.13;;
8232;SDS011;4157;48.074;9.952;2024-03-02T02:08:36;11.95;;;10.15;;
8232;SDS011;4157;48.074;9.952;2024-03-02T02:11:04;11.75;;;9.98;;
8232;SDS011;4157;48.074;9.952;2024-03-02T02:13:31;14.45;;;10.82;;
8232;SDS011;4157;48.074;9.952;2024-03-02T02:16:04;11.18;;;9.98;;
8232;SDS011;4157;48.074;9.952;2024-03-02T02:18:33;10.88;;;9.70;;
8232;SDS011;4157;48.074;9.952;2024-03-02T02:21:01;12.05;;;10.73;;
8232;SDS011;4157;48.074;9.952;2024-03-02T02:23:30;12.10;;;10.77;;
8232;SDS011;4157;48.074;9.952;2024-03-02T02:25:58;12.35;;;10.63;;
8232;SDS011;4157;48.074;9.952;2024-03-02T02:28:25;11.55;;;10.23;;
8232;SDS011;4157;48.074;9.952;2024-03-02T02:30:54;12.65;;;10.02;;
8232;SDS011;4157;48.074;9.952;2024-03-02T02:33:22;11.23;;;9.93;;
8232;SDS011;4157;48.074;9.952;2024-03-02T02:35:50;11.63;;;10.38;;
8232;SDS011;4157;48.074;9.952;2024-03-02T02:38:16;11.73;;;9.82;;
8232;SDS011;4157;48.074;9.952;2024-03-02T02:40:46;11.50;;;9.70;;
8232;SDS011;4157;48.074;9.952;2024-03-02T02:43:14;11.15;;;9.82;;
8232;SDS011;4157;48.074;9.952;2024-03-02T02:45:42;12.77;;;11.45;;
8232;SDS011;4157;48.074;9.952;2024-03-02T02:48:10;13.18;;;11.05;;
8232;SDS011;4157;48.074;9.952;2024-03-02T02:50:37;11.82;;;10.45;;
8232;SDS011;4157;48.074;9.952;2024-03-02T02:53:05;13.10;;;11.10;;
8232;SDS011;4157;48.074;9.952;2024-03-02T02:55:35;11.48;;;10.23;;
8232;SDS011;4157;48.074;9.952;2024-03-02T02:58:07;12.73;;;11.10;;
8232;SDS011;4157;48.074;9.952;2024-03-02T03:00:34;11.57;;;10.27;;
8232;SDS011;4157;48.074;9.952;2024-03-02T03:03:02;13.35;;;11.35;;
8232;SDS011;4157;48.074;9.952;2024-03-02T03:05:30;11.63;;;10.38;;
8232;SDS011;4157;48.074;9.952;2024-03-02T03:07:57;13.57;;;11.88;;
8232;SDS011;4157;48.074;9.952;2024-03-02T03:10:25;12.63;;;10.70;;
8232;SDS011;4157;48.074;9.952;2024-03-02T03:12:53;11.93;;;10.57;;
8232;SDS011;4157;48.074;9.952;2024-03-02T03:15:23;12.98;;;11.13;;
8232;SDS011;4157;48.074;9.952;2024-03-02T03:17:51;11.77;;;10.50;;
8232;SDS011;4157;48.074;9.952;2024-03-02T03:20:18;11.70;;;10.25;;
8232;SDS011;4157;48.074;9.952;2024-03-02T03:22:47;11.02;;;9.73;;
8232;SDS011;4157;48.074;9.952;2024-03-02T03:25:15;11.40;;;10.07;;
8232;SDS011;4157;48.074;9.952;2024-03-02T03:27:42;11.35;;;10.15;;
8232;SDS011;4157;48.074;9.952;2024-03-02T03:30:11;10.77;;;9.45;;
8232;SDS011;4157;48.074;9.952;2024-03-02T03:32:41;11.07;;;9.63;;
8232;SDS011;4157;48.074;9.952;2024-03-02T03:35:08;11.23;;;9.75;;
8232;SDS011;4157;48.074;9.952;2024-03-02T03:37:38;10.73;;;9.52;;
8232;SDS011;4157;48.074;9.952;2024-03-02T03:40:06;12.02;;;10.35;;
8232;SDS011;4157;48.074;9.952;2024-03-02T03:42:35;10.65;;;9.32;;
8232;SDS011;4157;48.074;9.952;2024-03-02T03:45:03;11.02;;;9.13;;
8232;SDS011;4157;48.074;9.952;2024-03-02T03:47:31;11.23;;;10.00;;
8232;SDS011;4157;48.074;9.952;2024-03-02T03:50:00;10.15;;;8.45;;
8232;SDS011;4157;48.074;9.952;2024-03-02T03:52:32;11.13;;;9.32;;
8232;SDS011;4157;48.074;9.952;2024-03-02T03:55:00;10.95;;;8.70;;
8232;SDS011;4157;48.074;9.952;2024-03-02T03:57:27;11.40;;;8.82;;
8232;SDS011;4157;48.074;9.952;2024-03-02T03:59:55;13.38;;;9.10;;
8232;SDS011;4157;48.074;9.952;2024-03-02T04:02:23;12.10;;;9.00;;
8232;SDS011;4157;48.074;9.952;2024-03-02T04:04:51;11.55;;;9.13;;
8232;SDS011;4157;48.074;9.952;2024-03-02T04:07:20;8.05;;;7.05;;
8232;SDS011;4157;48.074;9.952;2024-03-02T04:09:47;8.52;;;7.53;;
8232;SDS011;4157;48.074;9.952;2024-03-02T04:12:15;10.18;;;7.45;;
8232;SDS011;4157;48.074;9.952;2024-03-02T04:14:43;10.00;;;8.90;;
8232;SDS011;4157;48.074;9.952;2024-03-02T04:17:10;10.55;;;8.48;;
8232;SDS011;4157;48.074;9.952;2024-03-02T04:19:38;11.32;;;9.77;;
8232;SDS011;4157;48.074;9.952;2024-03-02T04:22:06;10.43;;;8.93;;
8232;SDS011;4157;48.074;9.952;2024-03-02T04:24:35;9.30;;;7.80;;
8232;SDS011;4157;48.074;9.952;2024-03-02T04:27:03;10.05;;;8.35;;
8232;SDS011;4157;48.074;9.952;2024-03-02T04:29:30;10.18;;;8.77;;
8232;SDS011;4157;48.074;9.952;2024-03-02T04:31:59;9.82;;;7.95;;
8232;SDS011;4157;48.074;9.952;2024-03-02T04:34:27;9.13;;;7.35;;
8232;SDS011;4157;48.074;9.952;2024-03-02T04:36:54;8.77;;;7.68;;
8232;SDS011;4157;48.074;9.952;2024-03-02T04:39:22;8.85;;;7.95;;
8232;SDS011;4157;48.074;9.952;2024-03-02T04:41:51;8.63;;;6.85;;
8232;SDS011;4157;48.074;9.952;2024-03-02T04:44:19;9.65;;;7.80;;
8232;SDS011;4157;48.074;9.952;2024-03-02T04:46:47;9.13;;;7.80;;
8232;SDS011;4157;48.074;9.952;2024-03-02T04:49:14;9.18;;;8.07;;
8232;SDS011;4157;48.074;9.952;2024-03-02T04:51:42;10.43;;;9.05;;
8232;SDS011;4157;48.074;9.952;2024-03-02T04:54:09;11.27;;;9.95;;
8232;SDS011;4157;48.074;9.952;2024-03-02T04:56:39;16.10;;;12.75;;
8232;SDS011;4157;48.074;9.952;2024-03-02T04:59:11;17.35;;;13.77;;
8232;SDS011;4157;48.074;9.952;2024-03-02T05:01:39;15.55;;;11.50;;
8232;SDS011;4157;48.074;9.952;2024-03-02T05:04:06;14.20;;;11.35;;
8232;SDS011;4157;48.074;9.952;2024-03-02T05:06:35;12.82;;;11.43;;
8232;SDS011;4157;48.074;9.952;2024-03-02T05:09:03;14.25;;;12.00;;
8232;SDS011;4157;48.074;9.952;2024-03-02T05:11:31;13.18;;;11.23;;
8232;SDS011;4157;48.074;9.952;2024-03-02T05:14:23;12.60;;;10.57;;
8232;SDS011;4157;48.074;9.952;2024-03-02T05:16:50;11.70;;;10.45;;
8232;SDS011;4157;48.074;9.952;2024-03-02T05:19:18;12.23;;;10.80;;
8232;SDS011;4157;48.074;9.952;2024-03-02T05:21:46;13.00;;;10.60;;
8232;SDS011;4157;48.074;9.952;2024-03-02T05:24:14;13.32;;;11.35;;
8232;SDS011;4157;48.074;9.952;2024-03-02T05:26:42;12.43;;;10.98;;
8232;SDS011;4157;48.074;9.952;2024-03-02T05:29:09;12.65;;;10.93;;
8232;SDS011;4157;48.074;9.952;2024-03-02T05:31:38;12.48;;;10.60;;
8232;SDS011;4157;48.074;9.952;2024-03-02T05:34:06;12.73;;;10.52;;
8232;SDS011;4157;48.074;9.952;2024-03-02T05:36:34;12.77;;;10.98;;
8232;SDS011;4157;48.074;9.952;2024-03-02T05:39:01;13.60;;;12.02;;
8232;SDS011;4157;48.074;9.952;2024-03-02T05:41:30;14.15;;;12.07;;
8232;SDS011;4157;48.074;9.952;2024-03-02T05:43:58;20.13;;;17.98;;
8232;SDS011;4157;48.074;9.952;2024-03-02T05:46:26;17.38;;;15.50;;
8232;SDS011;4157;48.074;9.952;2024-03-02T05:48:55;13.25;;;11.23;;
8232;SDS011;4157;48.074;9.952;2024-03-02T05:51:23;12.77;;;10.75;;
8232;SDS011;4157;48.074;9.952;2024-03-02T05:53:50;15.10;;;11.98;;
8232;SDS011;4157;48.074;9.952;2024-03-02T05:56:18;13.15;;;11.05;;
8232;SDS011;4157;48.074;9.952;2024-03-02T05:58:45;13.07;;;11.68;;
8232;SDS011;4157;48.074;9.952;2024-03-02T06:01:23;12.15;;;10.63;;
8232;SDS011;4157;48.074;9.952;2024-03-02T06:03:55;14.82;;;12.20;;
8232;SDS011;4157;48.074;9.952;2024-03-02T06:06:24;13.48;;;12.07;;
8232;SDS011;4157;48.074;9.952;2024-03-02T06:08:52;13.02;;;11.32;;
8232;SDS011;4157;48.074;9.952;2024-03-02T06:11:19;13.07;;;10.63;;
8232;SDS011;4157;48.074;9.952;2024-03-02T06:13:47;15.30;;;13.65;;
8232;SDS011;4157;48.074;9.952;2024-03-02T06:16:15;15.82;;;14.18;;
8232;SDS011;4157;48.074;9.952;2024-03-02T06:18:42;20.17;;;17.63;;
8232;SDS011;4157;48.074;9.952;2024-03-02T06:21:11;16.00;;;14.30;;
8232;SDS011;4157;48.074;9.952;2024-03-02T06:23:39;15.38;;;13.57;;
8232;SDS011;4157;48.074;9.952;2024-03-02T06:26:07;20.08;;;17.92;;
8232;SDS011;4157;48.074;9.952;2024-03-02T06:28:34;14.73;;;13.07;;
8232;SDS011;4157;48.074;9.952;2024-03-02T06:31:02;13.45;;;12.05;;
8232;SDS011;4157;48.074;9.952;2024-03-02T06:33:30;14.43;;;11.05;;
8232;SDS011;4157;48.074;9.952;2024-03-02T06:35:57;15.05;;;12.77;;
8232;SDS011;4157;48.074;9.952;2024-03-02T06:38:26;11.45;;;10.18;;
8232;SDS011;4157;48.074;9.952;2024-03-02T06:40:53;12.05;;;10.30;;
8232;SDS011;4157;48.074;9.952;2024-03-02T06:43:21;12.57;;;11.27;;
8232;SDS011;4157;48.074;9.952;2024-03-02T06:45:49;12.38;;;11.07;;
8232;SDS011;4157;48.074;9.952;2024-03-02T06:48:17;13.70;;;11.88;;
8232;SDS011;4157;48.074;9.952;2024-03-02T06:50:45;13.57;;;12.15;;
8232;SDS011;4157;48.074;9.952;2024-03-02T06:53:13;14.73;;;13.10;;
8232;SDS011;4157;48.074;9.952;2024-03-02T06:55:44;17.35;;;14.07;;
8232;SDS011;4157;48.074;9.952;2024-03-02T06:58:12;14.15;;;12.63;;
8232;SDS011;4157;48.074;9.952;2024-03-02T07:00:40;16.58;;;13.50;;
8232;SDS011;4157;48.074;9.952;2024-03-02T07:03:09;15.65;;;13.82;;
8232;SDS011;4157;48.074;9.952;2024-03-02T07:05:37;16.73;;;13.93;;
8232;SDS011;4157;48.074;9.952;2024-03-02T07:08:05;14.65;;;13.15;;
8232;SDS011;4157;48.074;9.952;2024-03-02T07:10:33;21.92;;;17.23;;
8232;SDS011;4157;48.074;9.952;2024-03-02T07:13:02;18.73;;;15.10;;
8232;SDS011;4157;48.074;9.952;2024-03-02T07:15:30;15.48;;;13.13;;
8232;SDS011;4157;48.074;9.952;2024-03-02T07:18:20;16.20;;;13.95;;
8232;SDS011;4157;48.074;9.952;2024-03-02T07:20:47;15.68;;;13.88;;
8232;SDS011;4157;48.074;9.952;2024-03-02T07:23:15;15.25;;;12.65;;
8232;SDS011;4157;48.074;9.952;2024-03-02T07:25:43;13.30;;;11.90;;
8232;SDS011;4157;48.074;9.952;2024-03-02T07:28:12;13.35;;;11.95;;
8232;SDS011;4157;48.074;9.952;2024-03-02T07:30:40;15.15;;;12.48;;
8232;SDS011;4157;48.074;9.952;2024-03-02T07:33:07;14.23;;;12.70;;
8232;SDS011;4157;48.074;9.952;2024-03-02T07:35:35;13.82;;;12.10;;
8232;SDS011;4157;48.074;9.952;2024-03-02T07:38:03;15.57;;;13.95;;
8232;SDS011;4157;48.074;9.952;2024-03-02T07:40:31;18.52;;;14.93;;
8232;SDS011;4157;48.074;9.952;2024-03-02T07:42:59;19.13;;;17.13;;
8232;SDS011;4157;48.074;9.952;2024-03-02T07:45:28;18.08;;;15.70;;
8232;SDS011;4157;48.074;9.952;2024-03-02T07:47:55;18.63;;;16.63;;
8232;SDS011;4157;48.074;9.952;2024-03-02T07:50:23;18.67;;;16.55;;
8232;SDS011;4157;48.074;9.952;2024-03-02T07:52:51;17.83;;;15.93;;
8232;SDS011;4157;48.074;9.952;2024-03-02T07:55:19;17.92;;;16.02;;
8232;SDS011;4157;48.074;9.952;2024-03-02T07:57:46;17.02;;;15.27;;
8232;SDS011;4157;48.074;9.952;2024-03-02T08:00:14;25.75;;;22.20;;
8232;SDS011;4157;48.074;9.952;2024-03-02T08:02:43;21.58;;;18.75;;
8232;SDS011;4157;48.074;9.952;2024-03-02T08:05:11;27.35;;;21.95;;
8232;SDS011;4157;48.074;9.952;2024-03-02T08:07:39;18.50;;;16.55;;
8232;SDS011;4157;48.074;9.952;2024-03-02T08:10:07;18.73;;;16.50;;
8232;SDS011;4157;48.074;9.952;2024-03-02T08:12:34;19.20;;;17.08;;
8232;SDS011;4157;48.074;9.952;2024-03-02T08:15:02;18.23;;;16.27;;
8232;SDS011;4157;48.074;9.952;2024-03-02T08:17:30;18.85;;;16.85;;
8232;SDS011;4157;48.074;9.952;2024-03-02T08:19:59;18.98;;;16.98;;
8232;SDS011;4157;48.074;9.952;2024-03-02T08:22:27;18.35;;;15.88;;
8232;SDS011;4157;48.074;9.952;2024-03-02T08:24:55;17.17;;;14.93;;
8232;SDS011;4157;48.074;9.952;2024-03-02T08:27:23;18.13;;;15.32;;
8232;SDS011;4157;48.074;9.952;2024-03-02T08:29:50;18.10;;;15.77;;
8232;SDS011;4157;48.074;9.952;2024-03-02T08:32:18;16.95;;;13.88;;
8232;SDS011;4157;48.074;9.952;2024-03-02T08:34:46;15.80;;;14.07;;
8232;SDS011;4157;48.074;9.952;2024-03-02T08:37:15;16.20;;;13.90;;
8232;SDS011;4157;48.074;9.952;2024-03-02T08:39:42;18.45;;;14.80;;
8232;SDS011;4157;48.074;9.952;2024-03-02T08:42:10;19.27;;;14.55;;
8232;SDS011;4157;48.074;9.952;2024-03-02T08:44:38;16.45;;;14.68;;
8232;SDS011;4157;48.074;9.952;2024-03-02T08:47:06;21.77;;;14.30;;
8232;SDS011;4157;48.074;9.952;2024-03-02T08:49:33;20.65;;;14.80;;
8232;SDS011;4157;48.074;9.952;2024-03-02T08:52:01;17.40;;;13.63;;
8232;SDS011;4157;48.074;9.952;2024-03-02T08:54:30;17.58;;;12.85;;
8232;SDS011;4157;48.074;9.952;2024-03-02T08:56:59;14.90;;;12.88;;
8232;SDS011;4157;48.074;9.952;2024-03-02T08:59:27;15.00;;;12.90;;
8232;SDS011;4157;48.074;9.952;2024-03-02T09:01:55;15.93;;;13.43;;
8232;SDS011;4157;48.074;9.952;2024-03-02T09:04:22;21.25;;;13.07;;
8232;SDS011;4157;48.074;9.952;2024-03-02T09:06:50;15.45;;;13.80;;
8232;SDS011;4157;48.074;9.952;2024-03-02T09:09:18;15.70;;;13.73;;
8232;SDS011;4157;48.074;9.952;2024-03-02T09:11:47;15.68;;;12.55;;
8232;SDS011;4157;48.074;9.952;2024-03-02T09:14:15;15.95;;;13.15;;
8232;SDS011;4157;48.074;9.952;2024-03-02T09:16:42;14.23;;;12.73;;
8232;SDS011;4157;48.074;9.952;2024-03-02T09:19:10;16.73;;;13.05;;
8232;SDS011;4157;48.074;9.952;2024-03-02T09:21:37;13.57;;;11.77;;
8232;SDS011;4157;48.074;9.952;2024-03-02T09:24:05;13.40;;;9.70;;
8232;SDS011;4157;48.074;9.952;2024-03-02T09:26:33;11.57;;;9.57;;
8232;SDS011;4157;48.074;9.952;2024-03-02T09:29:02;14.88;;;10.95;;
8232;SDS011;4157;48.074;9.952;2024-03-02T09:31:30;12.93;;;11.32;;
8232;SDS011;4157;48.074;9.952;2024-03-02T09:33:57;12.32;;;9.35;;
8232;SDS011;4157;48.074;9.952;2024-03-02T09:36:25;11.82;;;8.23;;
8232;SDS011;4157;48.074;9.952;2024-03-02T09:38:53;9.45;;;7.88;;
8232;SDS011;4157;48.074;9.952;2024-03-02T09:41:20;8.75;;;7.28;;
8232;SDS011;4157;48.074;9.952;2024-03-02T09:43:48;8.70;;;7.35;;
8232;SDS011;4157;48.074;9.952;2024-03-02T09:46:17;9.18;;;7.20;;
8232;SDS011;4157;48.074;9.952;2024-03-02T09:48:45;8.60;;;6.78;;
8232;SDS011;4157;48.074;9.952;2024-03-02T09:51:12;7.90;;;7.00;;
8232;SDS011;4157;48.074;9.952;2024-03-02T09:53:40;9.25;;;6.82;;
8232;SDS011;4157;48.074;9.952;2024-03-02T09:56:08;7.72;;;6.78;;
8232;SDS011;4157;48.074;9.952;2024-03-02T09:58:36;9.52;;;7.07;;
8232;SDS011;4157;48.074;9.952;2024-03-02T10:01:05;7.78;;;6.63;;
8232;SDS011;4157;48.074;9.952;2024-03-02T10:03:34;8.82;;;6.97;;
8232;SDS011;4157;48.074;9.952;2024-03-02T10:06:18;8.98;;;7.18;;
8232;SDS011;4157;48.074;9.952;2024-03-02T10:08:46;9.32;;;6.63;;
8232;SDS011;4157;48.074;9.952;2024-03-02T10:11:27;8.45;;;6.45;;
8232;SDS011;4157;48.074;9.952;2024-03-02T10:14:04;7.28;;;5.90;;
8232;SDS011;4157;48.074;9.952;2024-03-02T10:16:34;6.68;;;5.13;;
8232;SDS011;4157;48.074;9.952;2024-03-02T10:19:19;7.80;;;5.60;;
8232;SDS011;4157;48.074;9.952;2024-03-02T10:21:47;7.25;;;5.32;;
8232;SDS011;4157;48.074;9.952;2024-03-02T10:24:16;6.57;;;4.63;;
8232;SDS011;4157;48.074;9.952;2024-03-02T10:26:44;5.97;;;4.40;;
8232;SDS011;4157;48.074;9.952;2024-03-02T10:29:12;5.68;;;4.00;;
8232;SDS011;4157;48.074;9.952;2024-03-02T10:31:40;6.05;;;3.80;;
8232;SDS011;4157;48.074;9.952;2024-03-02T10:34:08;5.10;;;3.28;;
8232;SDS011;4157;48.074;9.952;2024-03-02T10:36:37;4.88;;;3.17;;
8232;SDS011;4157;48.074;9.952;2024-03-02T10:39:07;4.15;;;2.95;;
8232;SDS011;4157;48.074;9.952;2024-03-02T10:41:36;4.50;;;2.75;;
8232;SDS011;4157;48.074;9.952;2024-03-02T10:44:05;4.40;;;3.10;;
8232;SDS011;4157;48.074;9.952;2024-03-02T10:46:33;3.60;;;2.33;;
8232;SDS011;4157;48.074;9.952;2024-03-02T10:49:02;3.50;;;2.00;;
8232;SDS011;4157;48.074;9.952;2024-03-02T10:51:30;3.90;;;2.25;;
8232;SDS011;4157;48.074;9.952;2024-03-02T10:54:00;3.42;;;2.10;;
8232;SDS011;4157;48.074;9.952;2024-03-02T10:56:28;3.75;;;2.28;;
8232;SDS011;4157;48.074;9.952;2024-03-02T10:59:01;3.65;;;2.25;;
8232;SDS011;4157;48.074;9.952;2024-03-02T11:01:30;3.40;;;2.15;;
8232;SDS011;4157;48.074;9.952;2024-03-02T11:03:59;3.50;;;1.90;;
8232;SDS011;4157;48.074;9.952;2024-03-02T11:06:29;3.42;;;2.00;;
8232;SDS011;4157;48.074;9.952;2024-03-02T11:09:01;4.05;;;1.80;;
8232;SDS011;4157;48.074;9.952;2024-03-02T11:11:36;2.95;;;1.90;;
8232;SDS011;4157;48.074;9.952;2024-03-02T11:14:04;3.72;;;2.13;;
8232;SDS011;4157;48.074;9.952;2024-03-02T11:16:35;4.32;;;2.30;;
8232;SDS011;4157;48.074;9.952;2024-03-02T11:19:04;5.72;;;2.67;;
8232;SDS011;4157;48.074;9.952;2024-03-02T11:21:32;4.20;;;2.35;;
8232;SDS011;4157;48.074;9.952;2024-03-02T11:24:02;3.90;;;2.33;;
8232;SDS011;4157;48.074;9.952;2024-03-02T11:26:50;3.03;;;2.10;;
8232;SDS011;4157;48.074;9.952;2024-03-02T11:29:33;3.25;;;1.83;;
8232;SDS011;4157;48.074;9.952;2024-03-02T11:32:13;3.38;;;1.80;;
8232;SDS011;4157;48.074;9.952;2024-03-02T11:34:41;4.13;;;1.70;;
8232;SDS011;4157;48.074;9.952;2024-03-02T11:37:12;3.72;;;1.85;;
8232;SDS011;4157;48.074;9.952;2024-03-02T11:39:42;6.45;;;2.20;;
8232;SDS011;4157;48.074;9.952;2024-03-02T11:42:10;3.15;;;1.85;;
8232;SDS011;4157;48.074;9.952;2024-03-02T11:44:40;2.42;;;1.50;;
8232;SDS011;4157;48.074;9.952;2024-03-02T11:47:09;5.45;;;2.10;;
8232;SDS011;4157;48.074;9.952;2024-03-02T11:49:40;3.00;;;1.90;;
8232;SDS011;4157;48.074;9.952;2024-03-02T11:52:08;2.95;;;1.58;;
8232;SDS011;4157;48.074;9.952;2024-03-02T11:54:37;3.88;;;1.98;;
8232;SDS011;4157;48.074;9.952;2024-03-02T11:57:07;3.65;;;1.80;;
8232;SDS011;4157;48.074;9.952;2024-03-02T11:59:35;4.85;;;1.73;;
8232;SDS011;4157;48.074;9.952;2024-03-02T12:02:03;4.65;;;1.50;;
8232;SDS011;4157;48.074;9.952;2024-03-02T12:04:30;2.78;;;1.60;;
8232;SDS011;4157;48.074;9.952;2024-03-02T12:06:59;2.78;;;1.50;;
8232;SDS011;4157;48.074;9.952;2024-03-02T12:09:27;1.92;;;1.33;;
8232;SDS011;4157;48.074;9.952;2024-03-02T12:12:02;2.95;;;1.60;;
8232;SDS011;4157;48.074;9.952;2024-03-02T12:14:32;3.45;;;1.40;;
8232;SDS011;4157;48.074;9.952;2024-03-02T12:17:00;2.47;;;1.40;;
8232;SDS011;4157;48.074;9.952;2024-03-02T12:19:28;2.92;;;1.52;;
8232;SDS011;4157;48.074;9.952;2024-03-02T12:21:56;2.15;;;1.30;;
8232;SDS011;4157;48.074;9.952;2024-03-02T12:24:24;3.33;;;1.80;;
8232;SDS011;4157;48.074;9.952;2024-03-02T12:26:53;3.83;;;1.92;;
8232;SDS011;4157;48.074;9.952;2024-03-02T12:29:21;2.15;;;1.40;;
8232;SDS011;4157;48.074;9.952;2024-03-02T12:31:51;3.72;;;1.60;;
8232;SDS011;4157;48.074;9.952;2024-03-02T12:34:19;3.17;;;1.65;;
8232;SDS011;4157;48.074;9.952;2024-03-02T12:36:48;2.63;;;1.45;;
8232;SDS011;4157;48.074;9.952;2024-03-02T12:39:18;12.13;;;6.32;;
8232;SDS011;4157;48.074;9.952;2024-03-02T12:41:48;3.63;;;1.33;;
8232;SDS011;4157;48.074;9.952;2024-03-02T12:44:17;1.75;;;1.13;;
8232;SDS011;4157;48.074;9.952;2024-03-02T12:46:45;2.38;;;1.40;;
8232;SDS011;4157;48.074;9.952;2024-03-02T12:49:14;2.22;;;1.40;;
8232;SDS011;4157;48.074;9.952;2024-03-02T12:51:42;4.10;;;1.88;;
8232;SDS011;4157;48.074;9.952;2024-03-02T12:54:12;4.72;;;1.90;;
8232;SDS011;4157;48.074;9.952;2024-03-02T12:56:42;3.30;;;1.63;;
8232;SDS011;4157;48.074;9.952;2024-03-02T12:59:17;2.97;;;1.65;;
8232;SDS011;4157;48.074;9.952;2024-03-02T13:01:49;4.95;;;2.05;;
8232;SDS011;4157;48.074;9.952;2024-03-02T13:04:22;8.00;;;2.13;;
8232;SDS011;4157;48.074;9.952;2024-03-02T13:06:50;3.60;;;1.97;;
8232;SDS011;4157;48.074;9.952;2024-03-02T13:09:19;3.35;;;1.88;;
8232;SDS011;4157;48.074;9.952;2024-03-02T13:11:46;3.65;;;2.05;;
8232;SDS011;4157;48.074;9.952;2024-03-02T13:14:14;4.72;;;2.38;;
8232;SDS011;4157;48.074;9.952;2024-03-02T13:16:42;4.55;;;2.88;;
8232;SDS011;4157;48.074;9.952;2024-03-02T13:19:10;4.10;;;2.13;;
8232;SDS011;4157;48.074;9.952;2024-03-02T13:21:39;5.97;;;2.40;;
8232;SDS011;4157;48.074;9.952;2024-03-02T13:24:07;3.95;;;2.08;;
8232;SDS011;4157;48.074;9.952;2024-03-02T13:26:35;3.70;;;1.90;;
8232;SDS011;4157;48.074;9.952;2024-03-02T13:29:03;3.13;;;1.80;;
8232;SDS011;4157;48.074;9.952;2024-03-02T13:31:30;4.15;;;1.92;;
8232;SDS011;4157;48.074;9.952;2024-03-02T13:33:58;4.15;;;2.00;;
8232;SDS011;4157;48.074;9.952;2024-03-02T13:36:26;3.17;;;1.80;;
8232;SDS011;4157;48.074;9.952;2024-03-02T13:38:55;3.38;;;1.70;;
8232;SDS011;4157;48.074;9.952;2024-03-02T13:41:23;2.92;;;1.67;;
8232;SDS011;4157;48.074;9.952;2024-03-02T13:43:51;2.38;;;1.20;;
8232;SDS011;4157;48.074;9.952;2024-03-02T13:46:19;1.23;;;0.88;;
8232;SDS011;4157;48.074;9.952;2024-03-02T13:48:47;2.05;;;1.13;;
8232;SDS011;4157;48.074;9.952;2024-03-02T13:51:15;4.28;;;1.20;;
8232;SDS011;4157;48.074;9.952;2024-03-02T13:53:43;2.65;;;1.33;;
8232;SDS011;4157;48.074;9.952;2024-03-02T13:56:12;3.13;;;1.23;;
8232;SDS011;4157;48.074;9.952;2024-03-02T13:58:39;2.53;;;1.50;;
8232;SDS011;4157;48.074;9.952;2024-03-02T14:01:06;2.83;;;1.20;;
8232;SDS011;4157;48.074;9.952;2024-03-02T14:03:34;4.07;;;1.50;;
8232;SDS011;4157;48.074;9.952;2024-03-02T14:06:02;4.30;;;1.50;;
8232;SDS011;4157;48.074;9.952;2024-03-02T14:08:30;4.57;;;1.67;;
8232;SDS011;4157;48.074;9.952;2024-03-02T14:10:59;3.72;;;1.83;;
8232;SDS011;4157;48.074;9.952;2024-03-02T14:13:29;3.45;;;1.80;;
8232;SDS011;4157;48.074;9.952;2024-03-02T14:15:57;4.85;;;1.58;;
8232;SDS011;4157;48.074;9.952;2024-03-02T14:18:24;2.78;;;1.50;;
8232;SDS011;4157;48.074;9.952;2024-03-02T14:20:52;2.70;;;1.50;;
8232;SDS011;4157;48.074;9.952;2024-03-02T14:23:20;2.80;;;1.70;;
8232;SDS011;4157;48.074;9.952;2024-03-02T14:25:47;4.00;;;1.85;;
8232;SDS011;4157;48.074;9.952;2024-03-02T14:28:15;3.10;;;1.80;;
8232;SDS011;4157;48.074;9.952;2024-03-02T14:30:46;2.72;;;1.65;;
8232;SDS011;4157;48.074;9.952;2024-03-02T14:33:13;3.78;;;1.80;;
8232;SDS011;4157;48.074;9.952;2024-03-02T14:35:42;4.47;;;2.30;;
8232;SDS011;4157;48.074;9.952;2024-03-02T14:38:09;4.82;;;2.80;;
8232;SDS011;4157;48.074;9.952;2024-03-02T14:40:37;5.13;;;2.88;;
8232;SDS011;4157;48.074;9.952;2024-03-02T14:43:05;4.90;;;2.80;;
8232;SDS011;4157;48.074;9.952;2024-03-02T14:45:32;4.82;;;2.85;;
8232;SDS011;4157;48.074;9.952;2024-03-02T14:48:01;4.57;;;2.90;;
8232;SDS011;4157;48.074;9.952;2024-03-02T14:50:29;5.65;;;2.70;;
8232;SDS011;4157;48.074;9.952;2024-03-02T14:52:57;3.78;;;2.33;;
8232;SDS011;4157;48.074;9.952;2024-03-02T14:55:25;4.30;;;2.33;;
8232;SDS011;4157;48.074;9.952;2024-03-02T14:57:53;6.20;;;3.03;;
8232;SDS011;4157;48.074;9.952;2024-03-02T15:00:21;4.38;;;2.40;;
8232;SDS011;4157;48.074;9.952;2024-03-02T15:02:48;3.63;;;2.17;;
8232;SDS011;4157;48.074;9.952;2024-03-02T15:05:17;3.60;;;1.85;;
8232;SDS011;4157;48.074;9.952;2024-03-02T15:07:45;4.63;;;1.90;;